Time;durP1;ratioP1;P1;durP2;ratioP2;P2;SDS_P1;SDS_P2;PMS_P1;PMS_P2;Temp;Humidity;BMP_temperature;BMP_pressure;BME280_temperature;BME280_humidity;BME280_pressure;Samples;Min_cycle;Max_cycle;Signal;HPM_P1;HPM_P2
2023/04/23 00:01:38;;;;;;;;;;;11.40;99.90;;;;;;5044326;28;19925;-56
2023/04/23 00:04:05;;;;;;;;;;;11.30;99.90;;;;;;5042318;28;19917;-52
2023/04/23 00:06:31;;;;;;;;;;;11.30;99.90;;;;;;5040541;28;19933;-56
2023/04/23 00:08:58;;;;;;;;;;;11.20;99.90;;;;;;5037534;28;19913;-58
2023/04/23 00:11:24;;;;;;;;;;;11.10;99.90;;;;;;5044101;28;19919;-55
2023/04/23 00:13:50;;;;;;;;;;;11.20;99.90;;;;;;5041581;28;20310;-55
2023/04/23 00:16:15;;;;;;;;;;;11.10;99.90;;;;;;5041477;28;19920;-56
2023/04/23 00:18:41;;;;;;;;;;;11.10;99.90;;;;;;5039501;28;19913;-52
2023/04/23 00:21:08;;;;;;;;;;;11.00;99.90;;;;;;5041844;28;20014;-56
2023/04/23 00:23:33;;;;;;;;;;;11.00;99.90;;;;;;5036143;28;20259;-56
2023/04/23 00:25:58;;;;;;;;;;;11.00;99.90;;;;;;5044089;28;19921;-56
2023/04/23 00:28:24;;;;;;;;;;;11.00;99.90;;;;;;5039303;28;19913;-57
2023/04/23 00:30:50;;;;;;;;;;;11.00;99.90;;;;;;5036009;28;19953;-56
2023/04/23 00:33:15;;;;;;;;;;;10.90;99.90;;;;;;5038437;28;19944;-55
2023/04/23 00:35:41;;;;;;;;;;;10.90;99.90;;;;;;5041970;28;19917;-56
2023/04/23 00:38:06;;;;;;;;;;;10.90;99.90;;;;;;5036828;28;19913;-56
2023/04/23 00:40:32;;;;;;;;;;;10.90;99.90;;;;;;5038193;28;19921;-56
2023/04/23 00:42:58;;;;;;;;;;;10.80;99.90;;;;;;5036446;28;20016;-56
2023/04/23 00:45:23;;;;;;;;;;;10.80;99.90;;;;;;5041130;28;19921;-54
2023/04/23 00:47:49;;;;;;;;;;;10.80;99.90;;;;;;5033832;28;19921;-53
2023/04/23 00:50:14;;;;;;;;;;;10.70;99.90;;;;;;5034358;28;19976;-56
2023/04/23 00:52:40;;;;;;;;;;;10.70;99.90;;;;;;5042937;28;20442;-56
2023/04/23 00:55:07;;;;;;;;;;;10.70;99.90;;;;;;5038693;28;20391;-56
2023/04/23 00:57:32;;;;;;;;;;;10.70;99.90;;;;;;5038568;28;19949;-55
2023/04/23 00:59:58;;;;;;;;;;;10.70;99.90;;;;;;5035461;28;19960;-57
2023/04/23 01:02:25;;;;;;;;;;;10.60;99.90;;;;;;5036491;28;19921;-57
2023/04/23 01:04:51;;;;;;;;;;;10.60;99.90;;;;;;5037021;28;19920;-56
2023/04/23 01:07:16;;;;;;;;;;;10.60;99.90;;;;;;5041812;28;20004;-55
2023/04/23 01:09:42;;;;;;;;;;;10.60;99.90;;;;;;5041167;28;20011;-52
2023/04/23 01:12:08;;;;;;;;;;;10.60;99.90;;;;;;5040106;28;19979;-52
2023/04/23 01:14:35;;;;;;;;;;;10.60;99.90;;;;;;5041108;28;19913;-53
2023/04/23 01:17:01;;;;;;;;;;;10.60;99.90;;;;;;5040880;28;19999;-56
2023/04/23 01:19:27;;;;;;;;;;;10.50;99.90;;;;;;5035565;28;20336;-58
2023/04/23 01:21:53;;;;;;;;;;;10.50;99.90;;;;;;5039163;28;20415;-53
2023/04/23 01:24:18;;;;;;;;;;;10.50;99.90;;;;;;5036078;28;19936;-55
2023/04/23 01:26:44;;;;;;;;;;;10.40;99.90;;;;;;5040421;28;19920;-56
2023/04/23 01:29:10;;;;;;;;;;;10.40;99.90;;;;;;5035426;28;19913;-56
2023/04/23 01:31:35;;;;;;;;;;;10.40;99.90;;;;;;5039965;28;19923;-55
2023/04/23 01:34:01;;;;;;;;;;;10.40;99.90;;;;;;5040903;28;19923;-55
2023/04/23 01:36:26;;;;;;;;;;;10.40;99.90;;;;;;5042182;28;19991;-55
2023/04/23 01:38:52;;;;;;;;;;;10.40;99.90;;;;;;5035101;28;19917;-56
2023/04/23 01:41:18;;;;;;;;;;;10.40;99.90;;;;;;5042616;28;20007;-55
2023/04/23 01:43:44;;;;;;;;;;;10.40;99.90;;;;;;5035413;28;19999;-55
2023/04/23 01:46:10;;;;;;;;;;;10.40;99.90;;;;;;5033833;28;20377;-52
2023/04/23 01:48:36;;;;;;;;;;;10.40;99.90;;;;;;5034370;28;19913;-53
2023/04/23 01:51:01;;;;;;;;;;;10.40;99.90;;;;;;5035904;28;19920;-57
2023/04/23 01:53:27;;;;;;;;;;;10.40;99.90;;;;;;5036925;28;20051;-58
2023/04/23 01:55:52;;;;;;;;;;;10.30;99.90;;;;;;5035034;28;20453;-55
2023/04/23 01:58:18;;;;;;;;;;;10.40;99.90;;;;;;5034143;28;20018;-57
2023/04/23 02:00:43;;;;;;;;;;;10.30;99.90;;;;;;5039692;28;20307;-56
2023/04/23 02:03:09;;;;;;;;;;;10.40;99.90;;;;;;5034569;28;19917;-56
2023/04/23 02:05:35;;;;;;;;;;;10.30;99.90;;;;;;5039972;28;19925;-56
2023/04/23 02:08:01;;;;;;;;;;;10.30;99.90;;;;;;5038055;28;19995;-54
2023/04/23 02:10:28;;;;;;;;;;;10.30;99.90;;;;;;5039646;28;19917;-52
2023/04/23 02:12:53;;;;;;;;;;;10.30;99.90;;;;;;5039332;28;19917;-56
2023/04/23 02:15:20;;;;;;;;;;;10.40;99.90;;;;;;5038004;28;20295;-53
2023/04/23 02:17:45;;;;;;;;;;;10.30;99.90;;;;;;5037277;28;20007;-52
2023/04/23 02:20:11;;;;;;;;;;;10.30;99.90;;;;;;5036937;28;20431;-56
2023/04/23 02:22:38;;;;;;;;;;;10.40;99.90;;;;;;5038491;28;19913;-54
2023/04/23 02:25:04;;;;;;;;;;;10.30;99.90;;;;;;5041551;28;20003;-56
2023/04/23 02:27:32;;;;;;;;;;;10.30;99.90;;;;;;5042321;28;19917;-51
2023/04/23 02:29:57;;;;;;;;;;;10.20;99.90;;;;;;5032335;28;19914;-55
2023/04/23 02:32:23;;;;;;;;;;;10.20;99.90;;;;;;5033711;28;19913;-53
2023/04/23 02:34:48;;;;;;;;;;;10.20;99.90;;;;;;5035513;28;19913;-52
2023/04/23 02:37:14;;;;;;;;;;;10.20;99.90;;;;;;5032361;28;19963;-54
2023/04/23 02:39:39;;;;;;;;;;;10.10;99.90;;;;;;5038650;28;19921;-54
2023/04/23 02:42:05;;;;;;;;;;;10.00;99.90;;;;;;5037691;28;19916;-54
2023/04/23 02:44:30;;;;;;;;;;;10.00;99.90;;;;;;5039469;28;19917;-53
2023/04/23 02:46:56;;;;;;;;;;;9.90;99.90;;;;;;5035241;28;19913;-57
2023/04/23 02:49:21;;;;;;;;;;;9.90;99.90;;;;;;5036742;28;20346;-52
2023/04/23 02:51:47;;;;;;;;;;;9.90;99.90;;;;;;5034592;28;19913;-54
2023/04/23 02:54:12;;;;;;;;;;;9.80;99.90;;;;;;5039948;28;19912;-56
2023/04/23 02:56:38;;;;;;;;;;;9.90;99.90;;;;;;5038596;28;19917;-51
2023/04/23 02:59:04;;;;;;;;;;;9.80;99.90;;;;;;5037593;28;19913;-55
2023/04/23 03:01:30;;;;;;;;;;;9.70;99.90;;;;;;5033926;28;20505;-51
2023/04/23 03:03:56;;;;;;;;;;;9.60;99.90;;;;;;5032322;28;19917;-52
2023/04/23 03:06:21;;;;;;;;;;;9.50;99.90;;;;;;5042322;28;19925;-53
2023/04/23 03:08:47;;;;;;;;;;;9.50;99.90;;;;;;5037138;28;19920;-55
2023/04/23 03:11:13;;;;;;;;;;;9.50;99.90;;;;;;5041912;28;19913;-53
2023/04/23 03:13:38;;;;;;;;;;;9.50;99.90;;;;;;5034803;28;19958;-52
2023/04/23 03:16:04;;;;;;;;;;;9.50;99.90;;;;;;5039961;28;20357;-53
2023/04/23 03:18:29;;;;;;;;;;;9.40;99.90;;;;;;5036905;28;19913;-56
2023/04/23 03:20:55;;;;;;;;;;;9.50;99.90;;;;;;5044533;28;20334;-56
2023/04/23 03:23:20;;;;;;;;;;;9.50;99.90;;;;;;5042007;28;20279;-55
2023/04/23 03:25:46;;;;;;;;;;;9.50;99.90;;;;;;5036721;28;19921;-57
2023/04/23 03:28:11;;;;;;;;;;;9.50;99.90;;;;;;5038624;28;20322;-54
2023/04/23 03:30:37;;;;;;;;;;;9.50;99.90;;;;;;5040427;28;20294;-54
2023/04/23 03:33:02;;;;;;;;;;;9.40;99.90;;;;;;5038773;28;19913;-56
2023/04/23 03:35:28;;;;;;;;;;;9.40;99.90;;;;;;5040516;28;19921;-55
2023/04/23 03:37:53;;;;;;;;;;;9.40;99.90;;;;;;5038148;28;19921;-55
2023/04/23 03:40:19;;;;;;;;;;;9.40;99.90;;;;;;5037094;28;19917;-53
2023/04/23 03:42:45;;;;;;;;;;;9.40;99.90;;;;;;5036388;28;19924;-54
2023/04/23 03:45:12;;;;;;;;;;;9.40;99.90;;;;;;5037054;28;19921;-54
2023/04/23 03:47:38;;;;;;;;;;;9.50;99.90;;;;;;5039929;28;19917;-56
2023/04/23 03:50:03;;;;;;;;;;;9.40;99.90;;;;;;5038454;28;19913;-53
2023/04/23 03:52:29;;;;;;;;;;;9.40;99.90;;;;;;5043158;28;19913;-56
2023/04/23 03:54:54;;;;;;;;;;;9.50;99.90;;;;;;5039773;28;20286;-54
2023/04/23 03:57:20;;;;;;;;;;;9.60;99.90;;;;;;5039594;28;19921;-56
2023/04/23 03:59:46;;;;;;;;;;;9.70;99.90;;;;;;5042142;28;20569;-52
2023/04/23 04:02:11;;;;;;;;;;;9.70;99.90;;;;;;5036972;28;20291;-52
2023/04/23 04:04:37;;;;;;;;;;;9.80;99.90;;;;;;5038235;28;20311;-56
2023/04/23 04:07:02;;;;;;;;;;;9.80;99.90;;;;;;5040184;28;19909;-55
2023/04/23 04:09:28;;;;;;;;;;;9.90;99.90;;;;;;5043916;28;20407;-50
2023/04/23 04:11:54;;;;;;;;;;;10.00;99.90;;;;;;5036151;28;19928;-53
2023/04/23 04:14:20;;;;;;;;;;;10.00;99.90;;;;;;5037828;28;19912;-55
2023/04/23 04:16:45;;;;;;;;;;;10.00;99.90;;;;;;5039588;28;20000;-56
2023/04/23 04:19:11;;;;;;;;;;;10.00;99.90;;;;;;5043953;28;20007;-56
2023/04/23 04:21:36;;;;;;;;;;;10.10;99.90;;;;;;5040202;28;20386;-53
2023/04/23 04:24:05;;;;;;;;;;;10.10;99.90;;;;;;5043555;28;20594;-51
2023/04/23 04:26:31;;;;;;;;;;;10.20;99.90;;;;;;5036011;28;19921;-55
2023/04/23 04:28:58;;;;;;;;;;;10.20;99.90;;;;;;5042694;28;19913;-55
2023/04/23 04:31:24;;;;;;;;;;;10.20;99.90;;;;;;5037199;28;19917;-54
2023/04/23 04:33:49;;;;;;;;;;;10.30;99.90;;;;;;5040689;28;19931;-53
2023/04/23 04:36:15;;;;;;;;;;;10.30;99.90;;;;;;5036083;28;19914;-55
2023/04/23 04:38:40;;;;;;;;;;;10.30;99.90;;;;;;5040112;28;19928;-56
2023/04/23 04:41:06;;;;;;;;;;;10.40;99.90;;;;;;5039442;28;19917;-55
2023/04/23 04:43:33;;;;;;;;;;;10.40;99.90;;;;;;5036270;28;19994;-55
2023/04/23 04:45:59;;;;;;;;;;;10.30;99.90;;;;;;5034936;28;19917;-53
2023/04/23 04:48:24;;;;;;;;;;;10.40;99.90;;;;;;5045234;28;19916;-55
2023/04/23 04:50:50;;;;;;;;;;;10.30;99.90;;;;;;5041396;28;19927;-51
2023/04/23 04:53:16;;;;;;;;;;;10.30;99.90;;;;;;5035595;28;19913;-54
2023/04/23 04:55:41;;;;;;;;;;;10.30;99.90;;;;;;5041497;28;19919;-51
2023/04/23 04:58:06;;;;;;;;;;;10.40;99.90;;;;;;5041387;28;19916;-55
2023/04/23 05:00:33;;;;;;;;;;;10.30;99.90;;;;;;5046717;28;19920;-54
2023/04/23 05:02:58;;;;;;;;;;;10.40;99.90;;;;;;5034348;28;19923;-52
2023/04/23 05:05:24;;;;;;;;;;;10.40;99.90;;;;;;5036742;28;19925;-54
2023/04/23 05:07:50;;;;;;;;;;;10.40;99.90;;;;;;5037858;28;19982;-53
2023/04/23 05:10:15;;;;;;;;;;;10.50;99.90;;;;;;5042622;28;19961;-51
2023/04/23 05:12:42;;;;;;;;;;;10.50;99.90;;;;;;5038643;28;19917;-52
2023/04/23 05:15:08;;;;;;;;;;;10.50;99.90;;;;;;5043091;28;20025;-51
2023/04/23 05:17:34;;;;;;;;;;;10.60;99.90;;;;;;5039746;28;19967;-52
2023/04/23 05:19:59;;;;;;;;;;;10.50;99.90;;;;;;5035368;28;19913;-56
2023/04/23 05:22:25;;;;;;;;;;;10.60;99.90;;;;;;5036615;28;19919;-55
2023/04/23 05:24:51;;;;;;;;;;;10.70;99.90;;;;;;5036010;28;19925;-56
2023/04/23 05:27:17;;;;;;;;;;;10.70;99.90;;;;;;5036100;28;19949;-55
2023/04/23 05:29:42;;;;;;;;;;;10.80;99.90;;;;;;5036820;28;19968;-53
2023/04/23 05:32:08;;;;;;;;;;;10.90;99.90;;;;;;5038622;28;20003;-54
2023/04/23 05:34:33;;;;;;;;;;;10.90;99.90;;;;;;5040817;28;19921;-57
2023/04/23 05:36:59;;;;;;;;;;;11.00;99.90;;;;;;5036594;28;19920;-54
2023/04/23 05:39:25;;;;;;;;;;;11.10;99.90;;;;;;5034237;28;20327;-55
2023/04/23 05:41:50;;;;;;;;;;;11.10;99.90;;;;;;5037302;28;19920;-53
2023/04/23 05:44:15;;;;;;;;;;;11.20;99.90;;;;;;5034893;28;19967;-55
2023/04/23 05:46:41;;;;;;;;;;;11.20;99.90;;;;;;5039201;28;19921;-56
2023/04/23 05:49:06;;;;;;;;;;;11.30;99.90;;;;;;5035515;28;20008;-58
2023/04/23 05:51:32;;;;;;;;;;;11.40;99.90;;;;;;5033651;28;20592;-56
2023/04/23 05:53:57;;;;;;;;;;;11.40;99.90;;;;;;5035578;28;20288;-54
2023/04/23 05:56:23;;;;;;;;;;;11.50;99.90;;;;;;5033710;28;19996;-57
2023/04/23 05:58:48;;;;;;;;;;;11.50;99.90;;;;;;5032829;28;19917;-54
2023/04/23 06:01:13;;;;;;;;;;;11.50;99.90;;;;;;5037668;28;20055;-56
2023/04/23 06:03:43;;;;;;;;;;;11.60;99.90;;;;;;5034102;28;19917;-56
2023/04/23 06:06:09;;;;;;;;;;;11.70;99.90;;;;;;5036928;28;19928;-56
2023/04/23 06:08:37;;;;;;;;;;;11.70;99.90;;;;;;5038564;28;21297;-55
2023/04/23 06:11:03;;;;;;;;;;;11.80;99.90;;;;;;5032373;28;19917;-56
2023/04/23 06:13:29;;;;;;;;;;;11.90;99.90;;;;;;5032891;28;19920;-55
2023/04/23 06:15:55;;;;;;;;;;;12.00;99.90;;;;;;5037800;28;19913;-54
2023/04/23 06:18:21;;;;;;;;;;;12.00;99.90;;;;;;5034619;28;19917;-55
2023/04/23 06:20:47;;;;;;;;;;;12.10;99.90;;;;;;5037874;28;19917;-56
2023/04/23 06:23:13;;;;;;;;;;;12.20;99.90;;;;;;5039087;28;20047;-54
2023/04/23 06:25:39;;;;;;;;;;;12.20;99.90;;;;;;5035743;28;19921;-58
2023/04/23 06:28:04;;;;;;;;;;;12.30;99.90;;;;;;5035732;28;19913;-55
2023/04/23 06:30:30;;;;;;;;;;;12.30;99.90;;;;;;5039204;28;19917;-57
2023/04/23 06:32:55;;;;;;;;;;;12.40;99.90;;;;;;5036859;28;19913;-51
2023/04/23 06:35:21;;;;;;;;;;;12.50;99.90;;;;;;5034257;28;20489;-54
2023/04/23 06:37:46;;;;;;;;;;;12.50;99.90;;;;;;5035300;28;20319;-55
2023/04/23 06:40:12;;;;;;;;;;;12.60;99.90;;;;;;5031768;28;20002;-55
2023/04/23 06:42:38;;;;;;;;;;;12.70;99.90;;;;;;5035446;28;20002;-55
2023/04/23 06:45:03;;;;;;;;;;;12.70;99.90;;;;;;5036344;28;19997;-57
2023/04/23 06:47:29;;;;;;;;;;;12.80;99.90;;;;;;5038393;28;19924;-59
2023/04/23 06:49:55;;;;;;;;;;;12.90;99.90;;;;;;5031333;28;20379;-55
2023/04/23 06:52:20;;;;;;;;;;;12.90;99.90;;;;;;5036033;28;20018;-56
2023/04/23 06:54:46;;;;;;;;;;;13.00;99.90;;;;;;5045287;28;19913;-56
2023/04/23 06:57:11;;;;;;;;;;;13.10;99.90;;;;;;5039249;28;19921;-55
2023/04/23 06:59:37;;;;;;;;;;;13.20;99.90;;;;;;5038151;28;19912;-55
2023/04/23 07:02:02;;;;;;;;;;;13.20;99.90;;;;;;5039392;28;19913;-55
2023/04/23 07:04:28;;;;;;;;;;;13.30;99.90;;;;;;5041873;28;19913;-55
2023/04/23 07:06:53;;;;;;;;;;;13.40;99.90;;;;;;5039861;28;20403;-55
2023/04/23 07:09:19;;;;;;;;;;;13.40;99.90;;;;;;5033597;28;20391;-54
2023/04/23 07:11:44;;;;;;;;;;;13.50;99.90;;;;;;5037839;28;19913;-55
2023/04/23 07:14:10;;;;;;;;;;;13.60;99.90;;;;;;5037933;28;19913;-57
2023/04/23 07:16:35;;;;;;;;;;;13.60;99.90;;;;;;5039825;28;19955;-57
2023/04/23 07:19:01;;;;;;;;;;;13.70;99.90;;;;;;5039432;28;19917;-55
2023/04/23 07:21:27;;;;;;;;;;;13.80;99.90;;;;;;5049624;28;20565;-51
2023/04/23 07:23:56;;;;;;;;;;;13.90;99.90;;;;;;5041801;28;19955;-51
2023/04/23 07:26:22;;;;;;;;;;;14.00;99.90;;;;;;5041188;28;19925;-55
2023/04/23 07:28:49;;;;;;;;;;;14.10;99.90;;;;;;5041884;28;19912;-54
2023/04/23 07:31:15;;;;;;;;;;;14.20;99.90;;;;;;5046725;28;19967;-53
2023/04/23 07:33:40;;;;;;;;;;;14.30;99.90;;;;;;5037534;28;19909;-55
2023/04/23 07:36:06;;;;;;;;;;;14.40;99.90;;;;;;5042803;28;19913;-54
2023/04/23 07:38:31;;;;;;;;;;;14.40;99.90;;;;;;5040439;28;20303;-55
2023/04/23 07:40:56;;;;;;;;;;;14.50;99.90;;;;;;5042883;28;20032;-55
2023/04/23 07:43:22;;;;;;;;;;;14.50;99.90;;;;;;5037811;28;19913;-54
2023/04/23 07:45:47;;;;;;;;;;;14.50;99.90;;;;;;5041475;28;19917;-54
2023/04/23 07:48:13;;;;;;;;;;;14.50;99.90;;;;;;5035890;28;19917;-57
2023/04/23 07:50:38;;;;;;;;;;;14.50;99.90;;;;;;5039729;28;19929;-55
2023/04/23 07:53:04;;;;;;;;;;;14.50;99.90;;;;;;5037619;28;20373;-55
2023/04/23 07:55:29;;;;;;;;;;;14.60;99.90;;;;;;5035768;28;20007;-55
2023/04/23 07:57:55;;;;;;;;;;;14.70;99.90;;;;;;5037322;28;19940;-52
2023/04/23 08:00:20;;;;;;;;;;;14.80;99.90;;;;;;5038823;28;19913;-56
2023/04/23 08:02:46;;;;;;;;;;;14.90;99.90;;;;;;5038666;28;20004;-53
2023/04/23 08:05:11;;;;;;;;;;;15.00;99.90;;;;;;5034854;28;20413;-54
2023/04/23 08:07:36;;;;;;;;;;;15.00;99.90;;;;;;5042443;28;19956;-55
2023/04/23 08:10:04;;;;;;;;;;;15.10;99.90;;;;;;5043450;28;19943;-54
2023/04/23 08:12:32;;;;;;;;;;;15.20;99.90;;;;;;5037786;28;19955;-60
2023/04/23 08:14:58;;;;;;;;;;;15.30;99.90;;;;;;5039533;28;20001;-54
2023/04/23 08:17:23;;;;;;;;;;;15.30;99.90;;;;;;5041471;28;19964;-53
2023/04/23 08:19:49;;;;;;;;;;;15.40;99.90;;;;;;5045919;28;19913;-55
2023/04/23 08:22:16;;;;;;;;;;;15.50;99.90;;;;;;5040875;28;19923;-56
2023/04/23 08:24:42;;;;;;;;;;;15.40;99.90;;;;;;5043358;28;19940;-55
2023/04/23 08:27:07;;;;;;;;;;;15.30;99.90;;;;;;5040591;28;20305;-57
2023/04/23 08:29:33;;;;;;;;;;;15.40;99.90;;;;;;5042450;28;19919;-56
2023/04/23 08:31:58;;;;;;;;;;;15.40;99.90;;;;;;5041624;28;19975;-54
2023/04/23 08:34:24;;;;;;;;;;;15.50;99.90;;;;;;5035105;28;19966;-50
2023/04/23 08:36:49;;;;;;;;;;;15.60;99.90;;;;;;5039633;28;19913;-56
2023/04/23 08:39:15;;;;;;;;;;;15.70;99.90;;;;;;5047076;28;20387;-54
2023/04/23 08:41:44;;;;;;;;;;;15.70;99.90;;;;;;5041841;28;20401;-54
2023/04/23 08:44:15;;;;;;;;;;;15.70;99.90;;;;;;5040803;28;19916;-55
2023/04/23 08:46:41;;;;;;;;;;;15.90;99.90;;;;;;5038415;28;19928;-51
2023/04/23 08:49:08;;;;;;;;;;;15.90;99.90;;;;;;5035798;28;19925;-53
2023/04/23 08:51:36;;;;;;;;;;;16.10;99.90;;;;;;5040841;28;19920;-54
2023/04/23 08:54:03;;;;;;;;;;;16.10;99.90;;;;;;5043891;28;19975;-55
2023/04/23 08:56:29;;;;;;;;;;;16.30;99.90;;;;;;5033863;28;20000;-56
2023/04/23 08:58:55;;;;;;;;;;;16.50;99.90;;;;;;5043652;28;20462;-58
2023/04/23 09:01:20;;;;;;;;;;;16.60;99.90;;;;;;5036360;28;19960;-54
2023/04/23 09:03:46;;;;;;;;;;;16.60;99.90;;;;;;5036270;28;19963;-53
2023/04/23 09:06:12;;;;;;;;;;;16.60;99.90;;;;;;5045532;28;20306;-51
2023/04/23 09:08:37;;;;;;;;;;;16.60;99.90;;;;;;5039247;28;19913;-56
2023/04/23 09:11:03;;;;;;;;;;;16.60;99.90;;;;;;5042548;28;19913;-51
2023/04/23 09:13:30;;;;;;;;;;;16.70;99.90;;;;;;5041078;28;19913;-51
2023/04/23 09:15:56;;;;;;;;;;;16.80;99.90;;;;;;5035864;28;19919;-55
2023/04/23 09:18:21;;;;;;;;;;;16.90;99.90;;;;;;5034339;28;20024;-54
2023/04/23 09:20:48;;;;;;;;;;;16.90;99.90;;;;;;5040876;28;20362;-56
2023/04/23 09:23:14;;;;;;;;;;;16.80;99.90;;;;;;5038337;28;19975;-55
2023/04/23 09:25:40;;;;;;;;;;;16.90;99.90;;;;;;5038022;28;19975;-52
2023/04/23 09:28:12;;;;;;;;;;;17.00;99.90;;;;;;5037595;28;19914;-53
2023/04/23 09:30:47;;;;;;;;;;;17.00;99.90;;;;;;5040655;28;19921;-56
2023/04/23 09:33:15;;;;;;;;;;;17.10;99.90;;;;;;5040007;28;19913;-55
2023/04/23 09:35:42;;;;;;;;;;;17.10;99.90;;;;;;5041588;28;19947;-56
2023/04/23 09:38:09;;;;;;;;;;;17.20;99.90;;;;;;5033485;28;19913;-55
2023/04/23 09:40:36;;;;;;;;;;;17.20;99.90;;;;;;5033447;28;20371;-55
2023/04/23 09:43:03;;;;;;;;;;;17.30;99.90;;;;;;5042958;28;19913;-55
2023/04/23 09:45:29;;;;;;;;;;;17.20;99.90;;;;;;5042449;28;19921;-54
2023/04/23 09:47:55;;;;;;;;;;;17.10;99.90;;;;;;5039631;28;19917;-56
2023/04/23 09:50:37;;;;;;;;;;;17.20;99.90;;;;;;5033583;28;19994;-53
2023/04/23 09:53:07;;;;;;;;;;;17.20;99.90;;;;;;5042282;28;19920;-55
2023/04/23 09:55:36;;;;;;;;;;;17.40;99.90;;;;;;5034008;28;19921;-55
2023/04/23 09:58:05;;;;;;;;;;;17.60;99.90;;;;;;5039383;28;20023;-56
2023/04/23 10:00:35;;;;;;;;;;;17.60;99.90;;;;;;5040023;28;20322;-58
2023/04/23 10:03:00;;;;;;;;;;;17.60;99.90;;;;;;5036805;28;19924;-57
2023/04/23 10:05:26;;;;;;;;;;;17.40;99.90;;;;;;5034908;28;19921;-56
2023/04/23 10:07:52;;;;;;;;;;;17.60;99.90;;;;;;5037922;28;20612;-53
2023/04/23 10:10:18;;;;;;;;;;;17.80;99.90;;;;;;5033089;28;19959;-54
2023/04/23 10:12:44;;;;;;;;;;;18.00;99.90;;;;;;5034868;28;20429;-52
2023/04/23 10:15:09;;;;;;;;;;;18.00;99.90;;;;;;5035233;28;19944;-51
2023/04/23 10:17:35;;;;;;;;;;;17.70;99.90;;;;;;5039830;28;19913;-55
2023/04/23 10:20:01;;;;;;;;;;;17.60;99.90;;;;;;5033291;28;19921;-54
2023/04/23 10:22:28;;;;;;;;;;;17.70;99.90;;;;;;5038634;28;19913;-52
2023/04/23 10:24:55;;;;;;;;;;;17.70;99.90;;;;;;5044555;28;19934;-54
2023/04/23 10:27:21;;;;;;;;;;;17.80;99.90;;;;;;5040567;28;19917;-52
2023/04/23 10:29:47;;;;;;;;;;;17.70;99.90;;;;;;5038549;28;19917;-54
2023/04/23 10:32:13;;;;;;;;;;;17.50;99.90;;;;;;5039114;28;19914;-56
2023/04/23 10:34:39;;;;;;;;;;;17.40;99.90;;;;;;5031911;28;19975;-55
2023/04/23 10:37:04;;;;;;;;;;;17.40;99.90;;;;;;5034844;28;20457;-54
2023/04/23 10:39:31;;;;;;;;;;;17.40;99.90;;;;;;5035622;28;19921;-55
2023/04/23 10:41:57;;;;;;;;;;;17.60;99.90;;;;;;5033328;28;19960;-55
2023/04/23 10:44:30;;;;;;;;;;;17.60;99.90;;;;;;5036725;28;19913;-56
2023/04/23 10:46:57;;;;;;;;;;;17.60;99.90;;;;;;5038070;28;20011;-56
2023/04/23 10:49:23;;;;;;;;;;;17.80;99.90;;;;;;5035279;28;19913;-54
2023/04/23 10:51:57;;;;;;;;;;;18.00;99.90;;;;;;5034196;28;20008;-54
2023/04/23 10:54:27;;;;;;;;;;;18.10;99.90;;;;;;5036941;28;20008;-56
2023/04/23 10:56:56;;;;;;;;;;;18.10;99.90;;;;;;5027012;28;19921;-52
2023/04/23 10:59:22;;;;;;;;;;;18.10;99.90;;;;;;5040627;28;19921;-56
2023/04/23 11:01:50;;;;;;;;;;;18.00;99.90;;;;;;5039159;28;20047;-54
2023/04/23 11:04:21;;;;;;;;;;;17.90;99.90;;;;;;5029050;28;19923;-52
2023/04/23 11:06:46;;;;;;;;;;;18.00;99.90;;;;;;5033176;28;20376;-51
2023/04/23 11:09:34;;;;;;;;;;;18.30;99.90;;;;;;5033671;28;19920;-55
2023/04/23 11:12:00;;;;;;;;;;;18.30;99.90;;;;;;5034925;28;19948;-53
2023/04/23 11:14:55;;;;;;;;;;;18.50;99.90;;;;;;5033489;28;20697;-56
2023/04/23 11:17:22;;;;;;;;;;;18.70;99.90;;;;;;5040104;28;19913;-55
2023/04/23 11:20:02;;;;;;;;;;;18.70;99.90;;;;;;5036875;28;19927;-53
2023/04/23 11:22:57;;;;;;;;;;;18.50;99.90;;;;;;5033336;28;20323;-54
2023/04/23 11:25:24;;;;;;;;;;;18.40;99.90;;;;;;5031985;28;19917;-55
2023/04/23 11:27:50;;;;;;;;;;;18.30;99.90;;;;;;5037111;28;19913;-54
2023/04/23 11:30:22;;;;;;;;;;;18.20;99.90;;;;;;5031819;28;20071;-58
2023/04/23 11:32:48;;;;;;;;;;;18.00;99.90;;;;;;5028861;28;19914;-55
2023/04/23 11:35:15;;;;;;;;;;;18.00;99.90;;;;;;5033278;28;20390;-54
2023/04/23 11:37:41;;;;;;;;;;;17.90;99.90;;;;;;5035929;28;19914;-52
2023/04/23 11:40:09;;;;;;;;;;;17.90;99.90;;;;;;5038632;28;19917;-51
2023/04/23 11:42:48;;;;;;;;;;;18.00;99.90;;;;;;5039275;28;20295;-55
2023/04/23 11:45:14;;;;;;;;;;;17.90;99.90;;;;;;5036090;28;19924;-59
2023/04/23 11:47:39;;;;;;;;;;;17.80;99.90;;;;;;5038291;28;19913;-55
2023/04/23 11:50:05;;;;;;;;;;;18.00;99.90;;;;;;5039872;28;19928;-51
2023/04/23 11:52:31;;;;;;;;;;;18.50;99.90;;;;;;5040169;28;19981;-55
2023/04/23 11:55:01;;;;;;;;;;;19.00;99.90;;;;;;5039366;28;19920;-56
2023/04/23 11:57:26;;;;;;;;;;;19.00;99.90;;;;;;5035738;28;19913;-54
2023/04/23 11:59:52;;;;;;;;;;;19.50;99.90;;;;;;5043016;28;20330;-55
2023/04/23 12:02:17;;;;;;;;;;;19.60;99.90;;;;;;5035120;28;20670;-52
2023/04/23 12:04:43;;;;;;;;;;;19.60;99.90;;;;;;5041362;28;19921;-55
2023/04/23 12:07:08;;;;;;;;;;;19.90;99.90;;;;;;5034908;28;19917;-57
2023/04/23 12:09:35;;;;;;;;;;;20.40;99.90;;;;;;5037593;28;19920;-54
2023/04/23 12:12:01;;;;;;;;;;;20.60;99.40;;;;;;5039560;28;19920;-53
2023/04/23 12:14:27;;;;;;;;;;;20.40;99.90;;;;;;5041252;28;19917;-54
2023/04/23 12:16:53;;;;;;;;;;;20.20;99.90;;;;;;5041029;28;19996;-55
2023/04/23 12:19:20;;;;;;;;;;;20.40;99.90;;;;;;5034893;28;19992;-55
2023/04/23 12:21:56;;;;;;;;;;;20.90;99.20;;;;;;5042263;28;19920;-54
2023/04/23 12:24:22;;;;;;;;;;;21.10;96.30;;;;;;5043037;28;19923;-55
2023/04/23 12:26:48;;;;;;;;;;;21.40;99.70;;;;;;5041219;28;20387;-53
2023/04/23 12:29:16;;;;;;;;;;;21.60;99.20;;;;;;5038256;28;19923;-52
2023/04/23 12:31:43;;;;;;;;;;;21.20;95.60;;;;;;5040822;28;19925;-56
2023/04/23 12:34:09;;;;;;;;;;;21.10;93.60;;;;;;5038435;28;19970;-56
2023/04/23 12:36:35;;;;;;;;;;;21.00;96.30;;;;;;5034516;28;20013;-56
2023/04/23 12:39:22;;;;;;;;;;;21.00;94.80;;;;;;5034257;28;19917;-56
2023/04/23 12:42:07;;;;;;;;;;;21.10;95.20;;;;;;5032730;28;20003;-54
2023/04/23 12:44:34;;;;;;;;;;;21.50;93.80;;;;;;5029274;28;19974;-55
2023/04/23 12:47:03;;;;;;;;;;;21.30;96.30;;;;;;5035684;28;19917;-54
2023/04/23 12:49:29;;;;;;;;;;;21.10;97.00;;;;;;5032289;28;19913;-57
2023/04/23 12:52:01;;;;;;;;;;;20.80;96.50;;;;;;5034865;28;20295;-57
2023/04/23 12:54:28;;;;;;;;;;;20.50;95.60;;;;;;5032749;28;19959;-58
2023/04/23 12:56:54;;;;;;;;;;;20.50;95.90;;;;;;5037205;28;19916;-56
2023/04/23 12:59:20;;;;;;;;;;;20.70;95.40;;;;;;5032530;28;19919;-57
2023/04/23 13:01:45;;;;;;;;;;;21.10;95.50;;;;;;5039420;28;19919;-53
2023/04/23 13:04:11;;;;;;;;;;;21.00;93.70;;;;;;5042460;28;19926;-52
2023/04/23 13:06:36;;;;;;;;;;;20.80;93.20;;;;;;5036429;28;19921;-53
2023/04/23 13:09:04;;;;;;;;;;;20.60;93.80;;;;;;5041114;28;19916;-57
2023/04/23 13:11:32;;;;;;;;;;;20.30;95.70;;;;;;5039086;28;19951;-55
2023/04/23 13:13:58;;;;;;;;;;;20.20;95.10;;;;;;5042002;28;20003;-52
2023/04/23 13:16:23;;;;;;;;;;;20.10;96.10;;;;;;5032902;28;20008;-55
2023/04/23 13:18:51;;;;;;;;;;;19.90;95.10;;;;;;5043236;28;19917;-53
2023/04/23 13:21:16;;;;;;;;;;;19.90;94.50;;;;;;5042708;28;19913;-55
2023/04/23 13:23:42;;;;;;;;;;;19.80;93.60;;;;;;5037788;28;19979;-54
2023/04/23 13:26:07;;;;;;;;;;;19.60;95.10;;;;;;5041063;28;19995;-54
2023/04/23 13:28:33;;;;;;;;;;;19.50;95.40;;;;;;5037675;28;20039;-54
2023/04/23 13:30:59;;;;;;;;;;;19.40;96.60;;;;;;5040381;28;19913;-56
2023/04/23 13:33:25;;;;;;;;;;;19.30;96.30;;;;;;5040835;28;19913;-54
2023/04/23 13:35:51;;;;;;;;;;;19.30;96.20;;;;;;5036727;28;19967;-53
2023/04/23 13:38:16;;;;;;;;;;;19.40;95.10;;;;;;5047669;28;19913;-53
2023/04/23 13:40:42;;;;;;;;;;;19.10;95.70;;;;;;5037188;28;19979;-56
2023/04/23 13:43:07;;;;;;;;;;;19.00;97.20;;;;;;5038711;28;19956;-53
2023/04/23 13:45:33;;;;;;;;;;;19.10;97.30;;;;;;5035879;28;19925;-55
2023/04/23 13:48:01;;;;;;;;;;;19.10;99.90;;;;;;5036105;28;19917;-53
2023/04/23 13:50:26;;;;;;;;;;;19.00;99.30;;;;;;5041716;28;20134;-55
2023/04/23 13:52:52;;;;;;;;;;;18.90;99.90;;;;;;5038875;28;20049;-54
2023/04/23 13:55:17;;;;;;;;;;;18.90;99.90;;;;;;5037598;28;19952;-55
2023/04/23 13:57:43;;;;;;;;;;;18.70;99.10;;;;;;5041477;28;19913;-54
2023/04/23 14:00:08;;;;;;;;;;;18.60;99.40;;;;;;5039147;28;20387;-52
2023/04/23 14:02:34;;;;;;;;;;;18.50;99.90;;;;;;5040857;28;20303;-51
2023/04/23 14:05:02;;;;;;;;;;;18.50;99.90;;;;;;5032689;28;20394;-54
2023/04/23 14:07:27;;;;;;;;;;;18.50;99.90;;;;;;5040086;28;19952;-52
2023/04/23 14:09:53;;;;;;;;;;;18.60;99.90;;;;;;5038535;28;20422;-54
2023/04/23 14:12:19;;;;;;;;;;;18.50;99.90;;;;;;5032201;28;20517;-53
2023/04/23 14:14:45;;;;;;;;;;;18.40;99.90;;;;;;5040934;28;20294;-51